createdAt,value
2023-01-13T00:01:59.896Z,99816.59
2023-01-13T00:04:26.833Z,99806.63
2023-01-13T00:06:53.694Z,99811.88
2023-01-13T00:09:20.651Z,99809.41
2023-01-13T00:11:47.779Z,99804.00
2023-01-13T00:14:14.633Z,99806.34
2023-01-13T00:16:41.667Z,99802.50
2023-01-13T00:19:08.435Z,99798.25
2023-01-13T00:21:36.669Z,99802.44
2023-01-13T00:24:03.522Z,99803.88
2023-01-13T00:26:36.343Z,99800.69
2023-01-13T00:29:03.765Z,99802.69
2023-01-13T00:31:31.064Z,99815.41
2023-01-13T00:34:00.072Z,99805.97
2023-01-13T00:36:27.658Z,99806.97
2023-01-13T00:38:55.017Z,99810.72
2023-01-13T00:41:24.108Z,99814.91
2023-01-13T00:43:51.106Z,99805.78
2023-01-13T00:46:20.972Z,99810.50
2023-01-13T00:48:48.253Z,99811.28
2023-01-13T00:51:17.874Z,99809.25
2023-01-13T00:53:50.154Z,99819.88
2023-01-13T00:56:38.584Z,99814.25
2023-01-13T00:59:07.381Z,99799.13
2023-01-13T01:01:34.324Z,99806.44
2023-01-13T01:04:01.175Z,99804.25
2023-01-13T01:06:28.477Z,99799.13
2023-01-13T01:08:56.665Z,99802.66
2023-01-13T01:11:26.418Z,99801.88
2023-01-13T01:13:55.657Z,99794.47
2023-01-13T01:16:23.938Z,99805.16
2023-01-13T01:18:52.262Z,99796.03
2023-01-13T01:21:19.992Z,99794.25
2023-01-13T01:23:46.999Z,99790.03
2023-01-13T01:26:16.691Z,99788.88
2023-01-13T01:28:44.634Z,99793.47
2023-01-13T01:31:15.790Z,99778.06
2023-01-13T01:33:42.890Z,99786.00
2023-01-13T01:36:12.080Z,99772.31
2023-01-13T01:38:39.374Z,99769.91
2023-01-13T01:41:07.157Z,99765.06
2023-01-13T01:44:04.350Z,99782.38
2023-01-13T01:46:39.678Z,99769.63
2023-01-13T01:49:13.839Z,99777.94
2023-01-13T01:52:09.006Z,99773.56
2023-01-13T01:54:44.326Z,99771.44
2023-01-13T01:57:17.428Z,99775.31
2023-01-13T01:59:44.989Z,99770.53
2023-01-13T02:02:12.384Z,99773.72
2023-01-13T02:04:41.288Z,99773.72
2023-01-13T02:07:08.606Z,99766.69
2023-01-13T02:09:38.223Z,99770.69
2023-01-13T02:12:23.953Z,99775.22
2023-01-13T02:14:50.928Z,99774.66
2023-01-13T02:17:48.718Z,99765.13
2023-01-13T02:20:27.568Z,99767.22
2023-01-13T02:22:57.365Z,99761.41
2023-01-13T02:25:52.459Z,99769.25
2023-01-13T02:29:23.913Z,99764.91
2023-01-13T02:31:59.949Z,99766.72
2023-01-13T02:34:51.925Z,99767.72
2023-01-13T02:37:28.973Z,99758.69
2023-01-13T02:40:03.073Z,99772.16
2023-01-13T02:43:04.189Z,99771.34
2023-01-13T02:45:46.678Z,99777.03
2023-01-13T02:48:15.714Z,99776.16
2023-01-13T02:50:50.275Z,99787.19
2023-01-13T02:53:28.905Z,99774.56
2023-01-13T02:56:01.038Z,99778.72
2023-01-13T02:58:30.521Z,99791.59
2023-01-13T03:00:57.940Z,99780.91
2023-01-13T03:03:25.459Z,99781.94
2023-01-13T03:06:00.953Z,99783.13
2023-01-13T03:08:59.978Z,99784.41
2023-01-13T03:11:32.785Z,99776.34
2023-01-13T03:14:15.105Z,99781.16
2023-01-13T03:16:57.066Z,99789.00
2023-01-13T03:19:39.116Z,99794.13
2023-01-13T03:22:27.321Z,99789.31
2023-01-13T03:25:16.075Z,99792.75
2023-01-13T03:28:04.789Z,99800.69
2023-01-13T03:30:35.296Z,99793.75
2023-01-13T03:33:34.580Z,99804.81
2023-01-13T03:36:06.176Z,99799.06
2023-01-13T03:38:37.409Z,99798.25
2023-01-13T03:41:17.448Z,99805.28
2023-01-13T03:44:25.696Z,99795.41
2023-01-13T03:47:01.579Z,99807.88
2023-01-13T03:49:51.826Z,99795.56
2023-01-13T03:52:47.729Z,99806.13
2023-01-13T03:55:21.457Z,99807.09
2023-01-13T03:58:14.547Z,99806.09
2023-01-13T04:00:50.618Z,99798.50
2023-01-13T04:03:32.015Z,99798.44
2023-01-13T04:06:09.242Z,99797.47
2023-01-13T04:08:39.826Z,99797.78
2023-01-13T04:11:16.009Z,99792.75
2023-01-13T04:13:45.900Z,99799.34
2023-01-13T04:16:13.753Z,99800.97
2023-01-13T04:18:40.741Z,99794.75
2023-01-13T04:21:08.236Z,99794.00
2023-01-13T04:23:35.158Z,99789.91
2023-01-13T04:26:02.142Z,99781.22
2023-01-13T04:28:29.252Z,99783.56
2023-01-13T04:30:56.313Z,99796.31
2023-01-13T04:33:23.336Z,99785.13
2023-01-13T04:35:50.219Z,99774.75
2023-01-13T04:38:19.698Z,99783.34
2023-01-13T04:40:47.006Z,99784.97
2023-01-13T04:43:15.927Z,99786.22
2023-01-13T04:45:43.802Z,99785.25
2023-01-13T04:48:11.105Z,99782.59
2023-01-13T04:50:37.912Z,99779.94
2023-01-13T04:53:04.792Z,99775.09
2023-01-13T04:55:32.381Z,99782.63
2023-01-13T04:58:04.492Z,99775.75
2023-01-13T05:00:32.155Z,99777.38
2023-01-13T05:02:59.662Z,99771.53
2023-01-13T05:05:28.144Z,99774.38
2023-01-13T05:07:55.226Z,99759.59
2023-01-13T05:10:23.993Z,99768.53
2023-01-13T05:13:09.551Z,99769.19
2023-01-13T05:15:56.849Z,99765.25
2023-01-13T05:18:23.729Z,99766.44
2023-01-13T05:20:50.654Z,99768.94
2023-01-13T05:23:40.443Z,99771.03
2023-01-13T05:26:07.412Z,99772.44
2023-01-13T05:28:37.095Z,99773.38
2023-01-13T05:31:04.064Z,99779.84
2023-01-13T05:33:31.313Z,99780.13
2023-01-13T05:36:02.959Z,99776.91
2023-01-13T05:38:29.852Z,99769.94
2023-01-13T05:41:18.393Z,99770.97
2023-01-13T05:43:45.315Z,99774.34
2023-01-13T05:46:13.096Z,99767.97
2023-01-13T05:48:42.661Z,99772.81
2023-01-13T05:51:12.198Z,99771.88
2023-01-13T05:53:41.054Z,99773.19
2023-01-13T05:56:09.105Z,99779.63
2023-01-13T05:58:36.475Z,99775.81
2023-01-13T06:01:06.376Z,99775.28
2023-01-13T06:03:33.540Z,99777.78
2023-01-13T06:06:02.399Z,99784.97
2023-01-13T06:08:29.442Z,99779.84
2023-01-13T06:10:58.841Z,99780.72
2023-01-13T06:13:26.000Z,99784.34
2023-01-13T06:15:57.777Z,99778.66
2023-01-13T06:18:25.171Z,99771.84
2023-01-13T06:20:52.019Z,99775.47
2023-01-13T06:23:19.158Z,99778.16
2023-01-13T06:26:16.406Z,99772.38
2023-01-13T06:28:43.195Z,99769.94
2023-01-13T06:31:11.217Z,99773.00
2023-01-13T06:33:41.501Z,99782.34
2023-01-13T06:36:14.849Z,99784.69
2023-01-13T06:38:46.397Z,99788.28
2023-01-13T06:41:13.605Z,99776.97
2023-01-13T06:43:40.782Z,99792.31
2023-01-13T06:46:07.795Z,99785.53
2023-01-13T06:48:35.757Z,99796.25
2023-01-13T06:51:04.244Z,99791.13
2023-01-13T06:53:31.358Z,99784.44
2023-01-13T06:55:58.183Z,99797.81
2023-01-13T06:58:24.992Z,99798.75
2023-01-13T07:00:51.998Z,99805.28
2023-01-13T07:03:20.198Z,99810.69
2023-01-13T07:05:55.142Z,99807.88
2023-01-13T07:08:23.703Z,99816.22
2023-01-13T07:10:51.620Z,99820.31
2023-01-13T07:13:37.623Z,99809.03
2023-01-13T07:16:06.864Z,99804.19
2023-01-13T07:18:35.330Z,99811.28
2023-01-13T07:21:08.102Z,99813.09
2023-01-13T07:23:37.757Z,99811.22
2023-01-13T07:26:05.270Z,99819.19
2023-01-13T07:28:33.056Z,99823.06
2023-01-13T07:31:00.605Z,99822.94
2023-01-13T07:33:27.873Z,99821.09
2023-01-13T07:36:00.148Z,99817.13
2023-01-13T07:38:27.341Z,99811.13
2023-01-13T07:40:54.636Z,99818.63
2023-01-13T07:43:34.042Z,99813.50
2023-01-13T07:46:06.322Z,99825.06
2023-01-13T07:48:34.913Z,99808.66
2023-01-13T07:51:07.918Z,99810.72
2023-01-13T07:53:35.649Z,99822.88
2023-01-13T07:56:04.044Z,99824.53
2023-01-13T07:58:31.292Z,99824.78
2023-01-13T08:00:58.370Z,99820.03
2023-01-13T08:03:26.576Z,99823.72
2023-01-13T08:05:53.605Z,99820.56
2023-01-13T08:08:20.485Z,99820.59
2023-01-13T08:10:47.504Z,99828.81
2023-01-13T08:13:20.244Z,99819.16
2023-01-13T08:15:52.933Z,99824.59
2023-01-13T08:18:22.461Z,99820.75
2023-01-13T08:20:50.109Z,99815.78
2023-01-13T08:23:17.620Z,99818.06
2023-01-13T08:25:45.309Z,99818.53
2023-01-13T08:28:13.393Z,99827.69
2023-01-13T08:30:40.488Z,99825.47
2023-01-13T08:33:27.725Z,99828.88
2023-01-13T08:35:54.739Z,99829.38
2023-01-13T08:38:21.625Z,99818.53
2023-01-13T08:40:48.659Z,99833.25
2023-01-13T08:43:16.139Z,99828.34
2023-01-13T08:45:43.060Z,99818.97
2023-01-13T08:48:10.060Z,99815.94
2023-01-13T08:50:36.890Z,99810.19
2023-01-13T08:53:04.072Z,99817.72
2023-01-13T08:55:31.143Z,99819.81
2023-01-13T08:58:14.170Z,99819.06
2023-01-13T09:00:42.502Z,99824.00
2023-01-13T09:03:09.749Z,99825.16
2023-01-13T09:05:36.865Z,99828.22
2023-01-13T09:08:03.714Z,99833.16
2023-01-13T09:10:30.667Z,99831.00
2023-01-13T09:13:13.019Z,99818.09
2023-01-13T09:15:42.370Z,99823.22
2023-01-13T09:18:09.468Z,99810.41
2023-01-13T09:20:37.053Z,99808.84
2023-01-13T09:23:05.691Z,99815.25
2023-01-13T09:25:36.664Z,99813.06
2023-01-13T09:28:05.154Z,99805.53
2023-01-13T09:30:32.540Z,99806.09
2023-01-13T09:33:18.570Z,99811.63
2023-01-13T09:35:45.522Z,99800.84
2023-01-13T09:38:12.379Z,99800.66
2023-01-13T09:40:41.740Z,99793.56
2023-01-13T09:43:56.281Z,99798.81
2023-01-13T09:46:47.711Z,99786.44
2023-01-13T09:49:24.287Z,99786.78
2023-01-13T09:51:58.522Z,99797.31
2023-01-13T09:54:28.633Z,99785.16
2023-01-13T09:56:55.413Z,99787.72
2023-01-13T09:59:22.334Z,99779.97
2023-01-13T10:01:59.515Z,99776.66
2023-01-13T10:04:27.161Z,99775.41
2023-01-13T10:07:01.477Z,99772.56
2023-01-13T10:09:46.478Z,99762.91
2023-01-13T10:12:41.545Z,99767.56
2023-01-13T10:15:15.534Z,99769.72
2023-01-13T10:17:50.881Z,99765.41
2023-01-13T10:20:35.717Z,99760.28
2023-01-13T10:23:39.919Z,99759.53
2023-01-13T10:26:47.685Z,99756.25
2023-01-13T10:29:26.580Z,99746.94
2023-01-13T10:31:55.003Z,99742.34
2023-01-13T10:34:23.913Z,99751.78
2023-01-13T10:37:09.321Z,99733.41
2023-01-13T10:39:44.887Z,99732.25
2023-01-13T10:42:17.834Z,99737.31
2023-01-13T10:45:03.849Z,99734.69
2023-01-13T10:47:36.365Z,99734.00
2023-01-13T10:50:09.811Z,99730.53
2023-01-13T10:52:43.321Z,99720.13
2023-01-13T10:55:33.791Z,99723.63
2023-01-13T10:58:21.647Z,99730.59
2023-01-13T11:00:49.802Z,99718.09
2023-01-13T11:03:18.656Z,99713.44
2023-01-13T11:06:00.492Z,99710.81
2023-01-13T11:08:40.455Z,99706.66
2023-01-13T11:11:24.782Z,99700.63
2023-01-13T11:14:13.724Z,99699.78
2023-01-13T11:16:52.912Z,99693.50
2023-01-13T11:19:29.384Z,99681.56
2023-01-13T11:22:06.027Z,99687.94
2023-01-13T11:24:39.894Z,99690.38
2023-01-13T11:27:34.739Z,99685.34
2023-01-13T11:30:09.903Z,99683.44
2023-01-13T11:32:56.701Z,99673.81
2023-01-13T11:35:24.887Z,99669.44
2023-01-13T11:37:56.389Z,99676.34
2023-01-13T11:40:36.692Z,99663.34
2023-01-13T11:43:21.763Z,99665.94
2023-01-13T11:45:56.265Z,99665.09
2023-01-13T11:48:27.211Z,99655.53
2023-01-13T11:51:09.382Z,99651.28
2023-01-13T11:54:04.247Z,99654.59
2023-01-13T11:57:10.393Z,99654.53
2023-01-13T11:59:56.705Z,99641.19
2023-01-13T12:02:49.045Z,99637.31
2023-01-13T12:05:23.982Z,99635.31
2023-01-13T12:08:03.065Z,99633.88
2023-01-13T12:11:00.235Z,99628.06
2023-01-13T12:13:46.398Z,99626.78
2023-01-13T12:16:21.118Z,99630.19
2023-01-13T12:19:07.832Z,99623.31
2023-01-13T12:21:41.579Z,99616.44
2023-01-13T12:24:20.837Z,99617.28
2023-01-13T12:26:59.685Z,99617.50
2023-01-13T12:29:33.150Z,99617.44
2023-01-13T12:32:03.545Z,99620.22
2023-01-13T12:34:51.000Z,99612.63
2023-01-13T12:37:44.980Z,99604.22
2023-01-13T12:40:18.025Z,99606.88
2023-01-13T12:43:22.405Z,99603.53
2023-01-13T12:45:49.364Z,99593.25
2023-01-13T12:48:55.403Z,99598.41
2023-01-13T12:51:33.455Z,99596.56
2023-01-13T12:54:21.278Z,99605.34
2023-01-13T12:56:48.403Z,99590.28
2023-01-13T12:59:20.737Z,99599.13
2023-01-13T13:02:10.971Z,99589.31
2023-01-13T13:04:51.846Z,99581.38
2023-01-13T13:07:30.852Z,99595.19
2023-01-13T13:10:05.516Z,99589.38
2023-01-13T13:13:00.276Z,99590.19
2023-01-13T13:15:37.133Z,99584.50
2023-01-13T13:18:24.493Z,99586.03
2023-01-13T13:21:04.749Z,99583.22
2023-01-13T13:23:38.045Z,99584.00
2023-01-13T13:26:24.845Z,99587.59
2023-01-13T13:29:06.611Z,99585.78
2023-01-13T13:32:04.391Z,99582.53
2023-01-13T13:34:52.746Z,99577.28
2023-01-13T13:38:00.205Z,99578.94
2023-01-13T13:40:50.417Z,99577.59
2023-01-13T13:43:36.882Z,99575.56
2023-01-13T13:46:49.446Z,99580.69
2023-01-13T13:49:40.571Z,99589.63
2023-01-13T13:52:15.102Z,99583.97
2023-01-13T13:54:47.578Z,99569.38
2023-01-13T13:57:18.187Z,99571.91
2023-01-13T13:59:45.082Z,99575.19
2023-01-13T14:02:23.965Z,99571.31
2023-01-13T14:04:50.874Z,99564.06
2023-01-13T14:07:21.259Z,99567.09
2023-01-13T14:09:53.052Z,99569.75
2023-01-13T14:12:27.620Z,99559.41
2023-01-13T14:14:57.655Z,99575.09
2023-01-13T14:17:28.560Z,99571.59
2023-01-13T14:20:05.754Z,99572.25
2023-01-13T14:22:33.011Z,99572.44
2023-01-13T14:25:02.126Z,99561.31
2023-01-13T14:27:30.803Z,99558.00
2023-01-13T14:30:00.656Z,99557.75
2023-01-13T14:32:35.165Z,99566.91
2023-01-13T14:35:03.453Z,99569.25
2023-01-13T14:37:41.987Z,99568.56
2023-01-13T14:40:33.348Z,99573.53
2023-01-13T14:43:01.608Z,99576.31
2023-01-13T14:45:29.411Z,99561.44
2023-01-13T14:47:58.493Z,99570.63
2023-01-13T14:50:31.698Z,99568.94
2023-01-13T14:53:00.900Z,99566.78
2023-01-13T14:55:31.730Z,99566.50
2023-01-13T14:58:22.239Z,99579.41
2023-01-13T15:00:50.547Z,99576.22
2023-01-13T15:03:20.003Z,99580.53
2023-01-13T15:05:53.688Z,99583.25
2023-01-13T15:08:30.089Z,99590.75
2023-01-13T15:11:02.940Z,99580.97
2023-01-13T15:13:29.959Z,99586.28
2023-01-13T15:16:00.324Z,99580.63
2023-01-13T15:18:28.023Z,99585.66
2023-01-13T15:20:55.064Z,99586.06
2023-01-13T15:23:22.123Z,99587.00
2023-01-13T15:25:57.972Z,99589.59
2023-01-13T15:28:27.275Z,99587.94
2023-01-13T15:30:56.197Z,99598.25
2023-01-13T15:33:23.155Z,99594.72
2023-01-13T15:35:53.674Z,99585.09
2023-01-13T15:38:23.399Z,99590.34
2023-01-13T15:40:52.115Z,99586.38
2023-01-13T15:43:56.842Z,99581.47
2023-01-13T15:46:39.327Z,99573.03
2023-01-13T15:49:35.057Z,99577.28
2023-01-13T15:52:14.221Z,99567.06
2023-01-13T15:54:41.142Z,99568.41
2023-01-13T15:57:32.783Z,99558.75
2023-01-13T16:00:05.993Z,99555.78
2023-01-13T16:02:32.811Z,99558.94
2023-01-13T16:04:59.690Z,99552.28
2023-01-13T16:07:26.740Z,99550.41
2023-01-13T16:09:53.929Z,99552.28
2023-01-13T16:12:21.105Z,99556.28
2023-01-13T16:14:48.047Z,99554.03
2023-01-13T16:17:17.810Z,99543.41
2023-01-13T16:19:45.370Z,99544.59
2023-01-13T16:22:14.374Z,99541.25
2023-01-13T16:24:42.061Z,99541.53
2023-01-13T16:27:18.820Z,99543.09
2023-01-13T16:29:46.536Z,99542.00
2023-01-13T16:32:13.813Z,99543.28
2023-01-13T16:34:41.411Z,99553.28
2023-01-13T16:37:24.610Z,99557.47
2023-01-13T16:39:53.103Z,99559.31
2023-01-13T16:42:20.876Z,99562.88
2023-01-13T16:44:48.727Z,99566.44
2023-01-13T16:47:16.939Z,99562.22
2023-01-13T16:49:44.586Z,99566.38
2023-01-13T16:52:11.640Z,99561.09
2023-01-13T16:54:38.479Z,99560.13
2023-01-13T16:57:07.455Z,99572.16
2023-01-13T16:59:34.299Z,99561.47
2023-01-13T17:02:02.440Z,99570.59
2023-01-13T17:04:29.402Z,99568.72
2023-01-13T17:06:58.554Z,99566.38
2023-01-13T17:09:27.559Z,99557.81
2023-01-13T17:11:55.341Z,99554.72
2023-01-13T17:14:23.675Z,99560.06
2023-01-13T17:16:53.029Z,99558.03
2023-01-13T17:19:22.142Z,99558.53
2023-01-13T17:21:51.127Z,99558.25
2023-01-13T17:24:18.133Z,99560.25
2023-01-13T17:26:49.430Z,99566.44
2023-01-13T17:29:17.627Z,99564.50
2023-01-13T17:31:45.035Z,99569.22
2023-01-13T17:34:12.995Z,99575.16
2023-01-13T17:36:40.178Z,99581.22
2023-01-13T17:39:07.170Z,99576.78
2023-01-13T17:41:34.168Z,99582.66
2023-01-13T17:44:00.993Z,99586.88
2023-01-13T17:46:27.912Z,99582.13
2023-01-13T17:48:55.321Z,99588.66
2023-01-13T17:51:25.697Z,99591.56
2023-01-13T17:53:54.014Z,99582.75
2023-01-13T17:56:20.832Z,99592.69
2023-01-13T17:58:47.645Z,99589.00
2023-01-13T18:01:18.141Z,99582.13
2023-01-13T18:03:50.791Z,99584.00
2023-01-13T18:06:20.809Z,99581.81
2023-01-13T18:08:48.031Z,99573.59
2023-01-13T18:11:19.808Z,99572.06
2023-01-13T18:13:48.316Z,99572.13
2023-01-13T18:16:17.407Z,99561.41
2023-01-13T18:19:22.434Z,99556.75
2023-01-13T18:22:07.843Z,99551.50
2023-01-13T18:24:54.122Z,99552.00
2023-01-13T18:27:28.643Z,99555.84
2023-01-13T18:29:57.724Z,99556.66
2023-01-13T18:32:30.939Z,99557.91
2023-01-13T18:35:05.564Z,99557.03
2023-01-13T18:37:36.069Z,99563.59
2023-01-13T18:40:04.644Z,99567.13
2023-01-13T18:42:50.227Z,99561.78
2023-01-13T18:45:18.530Z,99565.53
2023-01-13T18:47:45.818Z,99572.69
2023-01-13T18:50:13.841Z,99563.44
2023-01-13T18:52:41.516Z,99565.91
2023-01-13T18:55:11.092Z,99563.13
2023-01-13T18:57:40.689Z,99569.94
2023-01-13T19:00:13.532Z,99568.50
2023-01-13T19:02:40.848Z,99567.88
2023-01-13T19:05:08.185Z,99573.72
2023-01-13T19:07:36.256Z,99561.72
2023-01-13T19:10:12.174Z,99572.38
2023-01-13T19:12:39.136Z,99562.81
2023-01-13T19:15:06.455Z,99569.13
2023-01-13T19:17:35.155Z,99562.19
2023-01-13T19:20:02.768Z,99566.47
2023-01-13T19:22:32.950Z,99563.91
2023-01-13T19:25:01.745Z,99557.44
2023-01-13T19:27:29.394Z,99553.69
2023-01-13T19:29:58.827Z,99555.22
2023-01-13T19:32:26.170Z,99556.91
2023-01-13T19:34:55.217Z,99561.63
2023-01-13T19:37:22.187Z,99555.88
2023-01-13T19:39:49.065Z,99556.78
2023-01-13T19:42:34.844Z,99556.16
2023-01-13T19:45:20.303Z,99556.94
2023-01-13T19:47:47.244Z,99553.34
2023-01-13T19:50:26.321Z,99556.44
2023-01-13T19:53:04.081Z,99558.31
2023-01-13T19:55:32.112Z,99548.44
2023-01-13T19:57:59.298Z,99543.69
2023-01-13T20:00:26.256Z,99539.47
2023-01-13T20:02:53.440Z,99539.78
2023-01-13T20:05:24.442Z,99540.41
2023-01-13T20:07:52.320Z,99534.41
2023-01-13T20:10:21.147Z,99551.69
2023-01-13T20:12:48.196Z,99535.59
2023-01-13T20:15:15.521Z,99547.50
2023-01-13T20:17:42.371Z,99543.28
2023-01-13T20:20:10.850Z,99537.34
2023-01-13T20:22:41.061Z,99538.84
2023-01-13T20:25:09.227Z,99536.59
2023-01-13T20:27:37.445Z,99545.22
2023-01-13T20:30:05.987Z,99544.75
2023-01-13T20:32:32.904Z,99541.19
2023-01-13T20:34:59.727Z,99541.81
2023-01-13T20:37:26.820Z,99534.50
2023-01-13T20:39:54.756Z,99551.88
2023-01-13T20:42:31.714Z,99543.09
2023-01-13T20:45:01.444Z,99549.09
2023-01-13T20:47:29.642Z,99539.38
2023-01-13T20:49:56.563Z,99543.56
2023-01-13T20:52:23.717Z,99538.63
2023-01-13T20:54:50.620Z,99541.19
2023-01-13T20:57:17.713Z,99538.44
2023-01-13T20:59:44.890Z,99542.22
2023-01-13T21:02:14.475Z,99544.50
2023-01-13T21:04:41.832Z,99543.88
2023-01-13T21:07:09.126Z,99545.16
2023-01-13T21:09:38.897Z,99548.50
2023-01-13T21:12:25.097Z,99535.63
2023-01-13T21:15:11.148Z,99540.69
2023-01-13T21:17:56.735Z,99538.81
2023-01-13T21:20:23.821Z,99544.75
2023-01-13T21:22:50.657Z,99541.25
2023-01-13T21:25:18.687Z,99547.19
2023-01-13T21:28:10.416Z,99554.66
2023-01-13T21:30:39.075Z,99543.69
2023-01-13T21:33:06.520Z,99555.88
2023-01-13T21:35:33.630Z,99561.91
2023-01-13T21:38:00.721Z,99559.34
2023-01-13T21:40:27.632Z,99554.69
2023-01-13T21:43:13.263Z,99559.00
2023-01-13T21:46:15.270Z,99553.75
2023-01-13T21:48:42.123Z,99564.44
2023-01-13T21:51:08.994Z,99571.66
2023-01-13T21:53:35.795Z,99567.47
2023-01-13T21:56:02.626Z,99565.41
2023-01-13T21:58:29.488Z,99566.19
2023-01-13T22:00:56.552Z,99564.50
2023-01-13T22:03:23.693Z,99576.09
2023-01-13T22:05:55.734Z,99570.94
2023-01-13T22:08:22.650Z,99561.38
2023-01-13T22:10:58.171Z,99568.91
2023-01-13T22:13:45.618Z,99577.03
2023-01-13T22:16:13.431Z,99584.06
2023-01-13T22:18:40.323Z,99584.56
2023-01-13T22:21:07.885Z,99593.19
2023-01-13T22:23:34.847Z,99588.03
2023-01-13T22:26:06.590Z,99571.97
2023-01-13T22:28:51.735Z,99570.88
2023-01-13T22:31:23.986Z,99570.47
2023-01-13T22:33:56.737Z,99563.03
2023-01-13T22:36:24.394Z,99576.50
2023-01-13T22:38:56.454Z,99576.34
2023-01-13T22:41:23.937Z,99574.47
2023-01-13T22:43:50.827Z,99572.50
2023-01-13T22:46:17.903Z,99575.50
2023-01-13T22:48:46.205Z,99567.59
2023-01-13T22:51:18.715Z,99563.88
2023-01-13T22:54:03.885Z,99564.22
2023-01-13T22:56:30.762Z,99560.13
2023-01-13T22:58:59.919Z,99555.72
2023-01-13T23:01:28.852Z,99554.69
2023-01-13T23:03:56.526Z,99547.09
2023-01-13T23:06:25.733Z,99543.63
2023-01-13T23:08:53.240Z,99548.56
2023-01-13T23:11:23.571Z,99551.31
2023-01-13T23:13:53.176Z,99551.84
2023-01-13T23:16:24.096Z,99543.25
2023-01-13T23:18:50.994Z,99531.31
2023-01-13T23:21:29.878Z,99532.31
2023-01-13T23:23:58.740Z,99531.72
2023-01-13T23:26:27.373Z,99530.03
2023-01-13T23:28:58.888Z,99525.19
2023-01-13T23:31:25.656Z,99515.31
2023-01-13T23:33:52.508Z,99522.41
2023-01-13T23:36:22.409Z,99516.31
2023-01-13T23:38:49.651Z,99522.81
2023-01-13T23:41:19.555Z,99518.69
2023-01-13T23:44:00.652Z,99520.94
2023-01-13T23:46:32.759Z,99505.69
2023-01-13T23:49:01.025Z,99510.47
2023-01-13T23:51:30.185Z,99521.81
2023-01-13T23:53:58.605Z,99521.81
2023-01-13T23:56:28.555Z,99530.19
2023-01-13T23:58:55.982Z,99523.00
